Time;durP1;ratioP1;P1;durP2;ratioP2;P2;SDS_P1;SDS_P2;PMS_P1;PMS_P2;Temp;Humidity;BMP_temperature;BMP_pressure;BME280_temperature;BME280_humidity;BME280_pressure;Samples;Min_cycle;Max_cycle;Signal;HPM_P1;HPM_P2
2022/04/03 00:00:33;;;;;;;5.27;2.60;;;;;;;15.12;36.58;94007.66;5067722;28;20442;-60
2022/04/03 00:03:01;;;;;;;4.23;3.10;;;;;;;15.31;35.62;94001.34;5068583;28;20438;-57
2022/04/03 00:05:28;;;;;;;4.50;2.53;;;;;;;14.92;36.91;94002.91;5068008;28;20474;-60
2022/04/03 00:07:56;;;;;;;4.53;2.97;;;;;;;15.03;37.05;93985.72;5067494;28;20446;-58
2022/04/03 00:10:22;;;;;;;3.90;2.83;;;;;;;14.91;37.78;93993.41;5068295;28;20495;-59
2022/04/03 00:12:50;;;;;;;4.50;2.60;;;;;;;15.08;37.50;93982.94;5069409;28;20875;-58
2022/04/03 00:15:17;;;;;;;4.83;2.83;;;;;;;15.09;38.14;93995.03;5088207;28;20448;-60
2022/04/03 00:17:45;;;;;;;4.70;2.50;;;;;;;15.14;36.55;93988.88;5083730;28;20446;-62
2022/04/03 00:20:13;;;;;;;4.50;2.50;;;;;;;14.95;37.41;93983.81;5068295;28;20442;-62
2022/04/03 00:22:42;;;;;;;5.77;2.60;;;;;;;13.77;39.95;94000.34;5068638;28;20533;-59
2022/04/03 00:25:11;;;;;;;3.73;1.40;;;;;;;13.00;39.38;93997.66;5068017;28;20478;-60
2022/04/03 00:27:38;;;;;;;3.80;2.03;;;;;;;14.31;39.86;93986.22;5067726;28;20434;-59
2022/04/03 00:30:07;;;;;;;3.87;2.37;;;;;;;14.57;41.11;93982.69;5068025;28;20866;-58
2022/04/03 00:32:35;;;;;;;7.43;3.30;;;;;;;14.52;40.60;93972.28;5067897;28;20431;-60
2022/04/03 00:35:03;;;;;;;5.00;2.00;;;;;;;14.21;39.63;93990.63;5067902;28;20434;-58
2022/04/03 00:37:31;;;;;;;4.57;2.23;;;;;;;14.44;39.34;93978.28;5068328;28;20485;-58
2022/04/03 00:39:57;;;;;;;3.00;1.90;;;;;;;14.55;39.87;93963.75;5067486;28;20964;-61
2022/04/03 00:42:25;;;;;;;4.87;2.83;;;;;;;14.71;39.62;93967.56;5070369;28;20533;-56
2022/04/03 00:44:52;;;;;;;3.27;1.90;;;;;;;14.43;39.12;93968.03;5071479;28;20458;-61
2022/04/03 00:47:20;;;;;;;2.33;1.30;;;;;;;13.91;39.60;93985.28;5071206;28;20528;-56
2022/04/03 00:49:48;;;;;;;2.73;1.67;;;;;;;14.31;39.66;93973.84;5071433;28;20457;-57
2022/04/03 00:52:15;;;;;;;2.37;1.50;;;;;;;14.52;39.08;93979.41;5071727;28;20660;-60
2022/04/03 00:54:44;;;;;;;2.23;1.47;;;;;;;14.54;39.42;93966.72;5070756;28;20445;-59
2022/04/03 00:57:11;;;;;;;5.03;2.20;;;;;;;14.18;39.29;93974.66;5072020;28;20448;-59
2022/04/03 00:59:41;;;;;;;4.63;2.23;;;;;;;14.57;39.60;93972.16;5071314;28;20438;-60
2022/04/03 01:02:09;;;;;;;2.63;1.90;;;;;;;14.58;39.28;93973.69;5071057;28;20475;-58
2022/04/03 01:04:40;;;;;;;3.30;1.93;;;;;;;14.91;38.66;93967.03;5069487;28;20474;-59
2022/04/03 01:07:08;;;;;;;4.90;2.30;;;;;;;14.88;38.65;93966.88;5070810;28;20902;-61
2022/04/03 01:09:35;;;;;;;3.70;2.27;;;;;;;14.77;38.94;93970.84;5070964;28;20452;-54
2022/04/03 01:12:02;;;;;;;3.53;2.30;;;;;;;14.38;39.50;93962.91;5071005;28;20440;-54
2022/04/03 01:14:37;;;;;;;4.17;2.80;;;;;;;14.43;39.52;93971.47;5070834;28;20495;-58
2022/04/03 01:17:05;;;;;;;5.03;2.10;;;;;;;14.41;39.01;93973.59;5071379;28;20956;-57
2022/04/03 01:19:33;;;;;;;5.30;2.30;;;;;;;13.88;38.33;93983.25;5070648;28;20442;-58
2022/04/03 01:22:00;;;;;;;3.03;1.60;;;;;;;13.95;37.57;93980.97;5071281;28;20518;-59
2022/04/03 01:24:27;;;;;;;4.70;1.57;;;;;;;14.18;37.68;93979.91;5070800;28;20470;-56
2022/04/03 01:26:54;;;;;;;3.33;1.50;;;;;;;13.81;37.77;93982.88;5071407;28;20473;-56
2022/04/03 01:29:21;;;;;;;5.67;1.40;;;;;;;13.69;37.49;93983.41;5071053;28;20507;-58
2022/04/03 01:31:48;;;;;;;4.07;1.60;;;;;;;13.87;36.91;93964.03;5070698;28;20803;-57
2022/04/03 01:34:16;;;;;;;7.50;1.27;;;;;;;13.90;36.76;93975.84;5070755;28;21014;-58
2022/04/03 01:36:44;;;;;;;4.30;1.57;;;;;;;13.58;36.90;93987.31;5071407;28;20434;-60
2022/04/03 01:39:12;;;;;;;3.67;1.40;;;;;;;13.46;36.97;93999.44;5070242;28;20470;-58
2022/04/03 01:41:40;;;;;;;6.03;1.70;;;;;;;13.60;37.29;93992.28;5070721;28;20437;-60
2022/04/03 01:44:09;;;;;;;5.73;1.57;;;;;;;13.47;36.79;93996.50;5070743;28;20469;-58
2022/04/03 01:46:38;;;;;;;3.97;1.40;;;;;;;13.50;36.88;94013.56;5070566;28;20476;-57
2022/04/03 01:49:06;;;;;;;5.47;1.20;;;;;;;13.43;36.83;94002.66;5070515;28;20456;-60
2022/04/03 01:51:33;;;;;;;2.50;1.23;;;;;;;13.58;36.87;94007.59;5070361;28;20442;-58
2022/04/03 01:54:01;;;;;;;2.70;1.20;;;;;;;13.60;36.93;94000.19;5070723;28;20470;-61
2022/04/03 01:56:28;;;;;;;2.70;1.40;;;;;;;13.48;36.67;94005.19;5070678;28;20541;-57
2022/04/03 01:58:55;;;;;;;4.80;1.73;;;;;;;13.78;36.60;93986.09;5070653;28;20434;-59
2022/04/03 02:01:22;;;;;;;4.50;1.50;;;;;;;13.61;37.24;93991.22;5070501;28;20515;-54
2022/04/03 02:03:49;;;;;;;2.70;1.27;;;;;;;13.32;37.12;93988.13;5070776;28;20490;-53
2022/04/03 02:06:19;;;;;;;5.17;1.50;;;;;;;13.81;36.70;93982.88;5070607;28;20487;-58
2022/04/03 02:08:47;;;;;;;2.00;1.00;;;;;;;13.98;36.46;93975.91;5070714;28;20445;-59
2022/04/03 02:11:15;;;;;;;3.23;1.40;;;;;;;14.18;36.29;93974.66;5069868;28;20445;-60
2022/04/03 02:13:42;;;;;;;4.23;1.40;;;;;;;13.94;36.60;93971.53;5069896;28;20462;-61
2022/04/03 02:16:11;;;;;;;5.47;1.67;;;;;;;13.59;37.06;93978.38;5070135;28;20476;-59
2022/04/03 02:18:40;;;;;;;3.63;1.57;;;;;;;13.95;36.66;93965.19;5070285;28;20538;-61
2022/04/03 02:21:07;;;;;;;1.60;1.10;;;;;;;13.84;37.20;93969.13;5069550;28;20438;-58
2022/04/03 02:23:33;;;;;;;4.83;1.63;;;;;;;13.93;37.57;93972.59;5069369;28;20529;-63
2022/04/03 02:26:00;;;;;;;3.80;1.50;;;;;;;13.94;37.30;93963.63;5069545;28;20489;-61
2022/04/03 02:28:27;;;;;;;2.03;1.33;;;;;;;13.94;37.32;93974.19;5069807;28;20473;-57
2022/04/03 02:30:54;;;;;;;5.50;1.93;;;;;;;14.05;37.14;93972.88;5068839;28;20880;-57
2022/04/03 02:33:21;;;;;;;3.27;1.60;;;;;;;13.80;37.50;93970.78;5070181;28;20443;-59
2022/04/03 02:35:49;;;;;;;3.40;1.30;;;;;;;13.63;37.58;93978.56;5069558;28;20533;-60
2022/04/03 02:38:16;;;;;;;3.17;1.67;;;;;;;13.65;37.16;93986.94;5069079;28;20585;-59
2022/04/03 02:40:43;;;;;;;3.23;1.43;;;;;;;13.70;37.14;93978.91;5068506;28;20509;-62
2022/04/03 02:43:11;;;;;;;5.73;1.60;;;;;;;13.69;37.14;93993.13;5069757;28;20449;-58
2022/04/03 02:45:39;;;;;;;3.33;1.40;;;;;;;13.56;37.95;93992.09;5068563;28;20480;-58
2022/04/03 02:48:06;;;;;;;4.33;1.40;;;;;;;13.36;37.96;93995.13;5069711;28;20441;-59
2022/04/03 02:50:34;;;;;;;5.90;1.60;;;;;;;13.40;38.10;93984.81;5069202;28;20435;-61
2022/04/03 02:53:01;;;;;;;8.63;1.67;;;;;;;13.66;37.63;93988.47;5069345;28;20429;-55
2022/04/03 02:55:27;;;;;;;5.47;1.50;;;;;;;13.83;37.72;93999.19;5069068;28;20450;-58
2022/04/03 02:57:55;;;;;;;3.87;1.70;;;;;;;13.78;37.56;93986.88;5069181;28;20430;-59
2022/04/03 03:00:21;;;;;;;2.93;1.60;;;;;;;13.95;37.69;93997.56;5069039;28;20441;-60
2022/04/03 03:02:51;;;;;;;3.33;1.60;;;;;;;14.05;37.41;93996.56;5069489;28;20461;-62
2022/04/03 03:05:19;;;;;;;3.83;1.50;;;;;;;13.98;38.01;93988.28;5067954;28;20482;-58
2022/04/03 03:07:46;;;;;;;3.47;1.30;;;;;;;13.90;38.63;93989.00;5069061;28;20442;-57
2022/04/03 03:10:15;;;;;;;4.13;1.57;;;;;;;13.89;38.27;93993.50;5068761;28;20442;-59
2022/04/03 03:12:44;;;;;;;4.60;1.80;;;;;;;13.56;38.50;93992.09;5069307;28;20585;-57
2022/04/03 03:15:13;;;;;;;2.90;1.33;;;;;;;13.06;39.16;94001.75;5068269;28;20533;-56
2022/04/03 03:17:40;;;;;;;4.80;1.60;;;;;;;12.88;40.05;94007.84;5067922;28;20454;-60
2022/04/03 03:20:07;;;;;;;6.27;1.80;;;;;;;13.48;39.56;93992.03;5067926;28;20964;-61
2022/04/03 03:22:35;;;;;;;3.63;1.53;;;;;;;13.61;39.22;94010.41;5069296;28;20888;-55
2022/04/03 03:25:05;;;;;;;6.20;2.00;;;;;;;13.95;39.04;94005.47;5067927;28;20500;-59
2022/04/03 03:27:32;;;;;;;8.40;2.97;;;;;;;13.83;39.07;94004.44;5068938;28;21068;-59
2022/04/03 03:29:59;;;;;;;4.43;2.50;;;;;;;13.92;39.00;94008.69;5068885;28;20442;-59
2022/04/03 03:32:26;;;;;;;5.27;2.57;;;;;;;14.04;38.50;94010.81;5068959;28;20442;-62
2022/04/03 03:34:54;;;;;;;5.33;2.50;;;;;;;13.98;38.72;94012.78;5068586;28;20430;-56
2022/04/03 03:37:21;;;;;;;6.20;1.97;;;;;;;13.98;38.39;94011.97;5068741;28;20573;-59
2022/04/03 03:39:48;;;;;;;4.17;1.70;;;;;;;13.94;38.72;94016.31;5067842;28;20473;-61
2022/04/03 03:42:16;;;;;;;3.43;1.70;;;;;;;13.81;38.90;94022.38;5069214;28;20436;-59
2022/04/03 03:44:42;;;;;;;6.27;2.20;;;;;;;13.85;38.83;94029.38;5068408;28;20462;-59
2022/04/03 03:47:09;;;;;;;4.77;2.23;;;;;;;14.19;38.37;94028.91;5069262;28;20521;-57
2022/04/03 03:49:36;;;;;;;4.60;2.73;;;;;;;13.92;39.40;94021.84;5067918;28;20438;-58
2022/04/03 03:52:03;;;;;;;6.33;3.67;;;;;;;13.95;39.45;94029.19;5068742;28;20819;-59
2022/04/03 03:54:30;;;;;;;4.57;2.67;;;;;;;13.89;39.59;94034.84;5067959;28;20976;-57
2022/04/03 03:56:58;;;;;;;6.83;2.60;;;;;;;13.86;39.85;94035.44;5069008;28;20462;-57
2022/04/03 03:59:25;;;;;;;5.20;2.87;;;;;;;13.86;40.34;94045.97;5068201;28;20430;-60
2022/04/03 04:01:53;;;;;;;8.20;4.47;;;;;;;13.80;39.77;94039.25;5068050;28;20476;-60
2022/04/03 04:04:20;;;;;;;9.17;5.43;;;;;;;13.81;39.64;94051.34;5068298;28;20445;-54
2022/04/03 04:06:48;;;;;;;10.87;5.93;;;;;;;13.55;41.58;94058.19;5068723;28;20521;-59
2022/04/03 04:09:15;;;;;;;10.57;8.23;;;;;;;13.87;41.61;94058.03;5067797;28;20430;-58
2022/04/03 04:11:42;;;;;;;11.33;7.23;;;;;;;13.94;40.35;94055.81;5068451;28;20445;-59
2022/04/03 04:14:09;;;;;;;10.40;5.87;;;;;;;13.75;40.76;94063.84;5068673;28;20449;-58
2022/04/03 04:16:36;;;;;;;6.87;4.37;;;;;;;13.78;40.35;94070.34;5071422;28;20521;-58
2022/04/03 04:19:06;;;;;;;9.27;3.90;;;;;;;13.78;40.31;94076.41;5072432;28;20948;-61
2022/04/03 04:21:34;;;;;;;11.13;3.53;;;;;;;13.66;40.85;94072.72;5072057;28;20921;-57
2022/04/03 04:24:01;;;;;;;8.13;4.10;;;;;;;13.68;40.85;94075.84;5072020;28;20484;-59
2022/04/03 04:26:29;;;;;;;6.77;4.27;;;;;;;13.32;40.36;94098.63;5071728;28;20470;-60
2022/04/03 04:28:56;;;;;;;9.07;4.80;;;;;;;13.45;40.27;94105.78;5071944;28;20445;-57
2022/04/03 04:31:23;;;;;;;4.70;3.53;;;;;;;13.17;40.17;94107.59;5072412;28;20514;-58
2022/04/03 04:33:50;;;;;;;7.70;2.40;;;;;;;12.59;41.54;94111.69;5072318;28;20503;-55
2022/04/03 04:36:16;;;;;;;5.90;2.30;;;;;;;12.93;40.41;94102.44;5071325;28;20436;-60
2022/04/03 04:38:43;;;;;;;7.43;2.50;;;;;;;13.10;40.26;94112.44;5071890;28;20469;-54
2022/04/03 04:41:10;;;;;;;9.00;2.67;;;;;;;12.91;40.73;94120.34;5071348;28;20446;-57
2022/04/03 04:43:37;;;;;;;4.27;2.53;;;;;;;13.24;40.31;94118.50;5071982;28;20473;-57
2022/04/03 04:46:04;;;;;;;5.43;2.53;;;;;;;13.30;40.63;94116.56;5071720;28;20469;-60
2022/04/03 04:48:32;;;;;;;5.83;2.60;;;;;;;13.23;39.81;94116.94;5071380;28;20430;-55
2022/04/03 04:50:59;;;;;;;3.90;2.50;;;;;;;13.34;39.52;94118.31;5071365;28;20495;-58
2022/04/03 04:53:26;;;;;;;4.83;2.30;;;;;;;13.32;39.75;94117.06;5071336;28;20469;-57
2022/04/03 04:55:54;;;;;;;5.67;2.63;;;;;;;13.33;39.59;94122.03;5070965;28;20450;-56
2022/04/03 04:58:21;;;;;;;5.47;2.20;;;;;;;12.22;40.99;94122.97;5071868;28;20446;-59
2022/04/03 05:00:48;;;;;;;4.33;2.57;;;;;;;12.59;41.79;94120.31;5071730;28;20430;-57
2022/04/03 05:03:15;;;;;;;5.27;2.40;;;;;;;13.15;40.89;94118.41;5071149;28;20450;-59
2022/04/03 05:05:43;;;;;;;5.03;2.70;;;;;;;13.50;40.95;94132.00;5070620;28;21011;-58
2022/04/03 05:08:09;;;;;;;6.40;2.90;;;;;;;13.59;40.34;94127.59;5071306;28;20444;-61
2022/04/03 05:10:36;;;;;;;6.27;2.30;;;;;;;13.67;40.37;94134.81;5071150;28;20442;-58
2022/04/03 05:13:08;;;;;;;6.03;2.50;;;;;;;13.81;39.80;94141.63;5070923;28;20446;-60
2022/04/03 05:15:35;;;;;;;3.87;2.20;;;;;;;13.88;39.70;94133.34;5071236;28;20434;-57
2022/04/03 05:18:02;;;;;;;3.90;2.00;;;;;;;14.11;39.81;94142.88;5071042;28;20446;-57
2022/04/03 05:20:30;;;;;;;4.80;2.27;;;;;;;14.33;39.75;94150.88;5070549;28;20446;-60
2022/04/03 05:22:57;;;;;;;8.07;2.90;;;;;;;14.32;39.29;94148.56;5070629;28;20971;-60
2022/04/03 05:25:24;;;;;;;6.63;4.40;;;;;;;14.05;39.56;94159.88;5070414;28;20478;-59
2022/04/03 05:27:52;;;;;;;9.20;4.50;;;;;;;14.28;39.29;94158.91;5070054;28;20491;-61
2022/04/03 05:30:19;;;;;;;9.57;5.10;;;;;;;14.31;38.96;94147.75;5071013;28;20447;-56
2022/04/03 05:32:46;;;;;;;8.43;4.73;;;;;;;14.13;38.93;94156.53;5070618;28;20452;-60
2022/04/03 05:35:13;;;;;;;8.67;4.70;;;;;;;13.99;39.27;94161.06;5069104;28;21347;-61
2022/04/03 05:37:42;;;;;;;7.83;5.60;;;;;;;14.17;39.51;94157.53;5070735;28;20484;-59
2022/04/03 05:40:11;;;;;;;11.73;5.83;;;;;;;14.23;39.06;94164.25;5070164;28;20470;-63
2022/04/03 05:42:39;;;;;;;10.33;5.60;;;;;;;14.16;39.35;94166.47;5070407;28;21055;-61
2022/04/03 05:45:07;;;;;;;8.80;5.70;;;;;;;14.10;39.82;94165.03;5070549;28;20984;-57
2022/04/03 05:47:34;;;;;;;8.53;5.00;;;;;;;14.18;39.40;94161.69;5070633;28;20502;-58
2022/04/03 05:50:07;;;;;;;7.33;4.53;;;;;;;14.25;38.88;94159.44;5070419;28;20813;-58
2022/04/03 05:52:39;;;;;;;7.67;4.20;;;;;;;14.28;39.09;94158.91;5070461;28;20791;-59
2022/04/03 05:55:08;;;;;;;7.90;3.73;;;;;;;12.91;40.02;94172.94;5070070;28;20576;-56
2022/04/03 05:57:39;;;;;;;1.43;0.70;;;;;;;12.75;36.09;94168.97;5069895;28;20426;-61
2022/04/03 06:00:08;;;;;;;2.37;0.63;;;;;;;13.36;34.99;94175.94;5069831;28;20450;-58
2022/04/03 06:02:56;;;;;;;0.90;0.40;;;;;;;13.23;33.97;94191.38;5070284;28;20423;-58
2022/04/03 06:05:32;;;;;;;1.30;0.50;;;;;;;12.65;33.81;94189.34;5069890;28;20485;-60
2022/04/03 06:08:03;;;;;;;4.77;0.67;;;;;;;12.91;33.71;94178.19;5070051;28;20454;-59
2022/04/03 06:10:31;;;;;;;1.20;0.60;;;;;;;12.25;34.20;94180.19;5069958;28;20461;-60
2022/04/03 06:12:59;;;;;;;5.03;1.40;;;;;;;12.76;33.95;94194.19;5069874;28;20434;-58
2022/04/03 06:15:28;;;;;;;3.90;1.80;;;;;;;12.00;34.69;94188.38;5069911;28;20430;-60
2022/04/03 06:17:55;;;;;;;1.90;0.80;;;;;;;12.57;34.90;94190.78;5069767;28;20942;-59
2022/04/03 06:20:22;;;;;;;3.47;1.30;;;;;;;13.16;33.93;94196.22;5070161;28;20442;-58
2022/04/03 06:22:49;;;;;;;2.23;0.70;;;;;;;12.76;33.96;94196.81;5069922;28;20677;-58
2022/04/03 06:25:17;;;;;;;3.00;1.00;;;;;;;13.23;33.73;94198.47;5069512;28;20470;-57
2022/04/03 06:27:44;;;;;;;1.73;0.77;;;;;;;13.13;34.36;94202.06;5069697;28;20883;-59
2022/04/03 06:30:11;;;;;;;1.70;0.90;;;;;;;13.53;33.31;94199.81;5068968;28;20500;-58
2022/04/03 06:32:38;;;;;;;2.63;1.07;;;;;;;13.84;33.35;94206.09;5070402;28;20451;-58
2022/04/03 06:35:05;;;;;;;2.90;1.00;;;;;;;13.72;34.02;94209.22;5069364;28;20437;-60
2022/04/03 06:37:32;;;;;;;1.23;0.80;;;;;;;13.49;33.83;94209.38;5070427;28;20442;-61
2022/04/03 06:39:59;;;;;;;1.27;0.50;;;;;;;12.62;34.53;94222.25;5068516;28;20449;-59
2022/04/03 06:42:29;;;;;;;2.07;0.53;;;;;;;12.15;34.68;94211.84;5069462;28;20492;-59
2022/04/03 06:44:56;;;;;;;2.43;0.70;;;;;;;12.60;35.10;94219.13;5069366;28;20453;-54
2022/04/03 06:47:23;;;;;;;4.83;0.90;;;;;;;13.07;33.95;94221.63;5069182;28;20552;-59
2022/04/03 06:49:50;;;;;;;0.83;0.50;;;;;;;12.71;34.83;94223.19;5068966;28;20503;-63
2022/04/03 06:52:17;;;;;;;1.27;0.70;;;;;;;12.55;35.18;94234.97;5069821;28;20435;-64
2022/04/03 06:54:44;;;;;;;2.90;0.50;;;;;;;12.14;35.36;94241.78;5069178;28;20453;-62
2022/04/03 06:57:15;;;;;;;1.70;0.60;;;;;;;12.33;35.73;94234.72;5069685;28;20442;-59
2022/04/03 06:59:42;;;;;;;2.47;0.60;;;;;;;13.05;35.17;94236.91;5068616;28;20813;-60
2022/04/03 07:02:09;;;;;;;3.20;0.53;;;;;;;12.40;35.84;94243.03;5069837;28;20438;-61
2022/04/03 07:04:36;;;;;;;2.23;0.80;;;;;;;12.92;35.60;94255.22;5069204;28;20472;-59
2022/04/03 07:07:04;;;;;;;4.63;0.80;;;;;;;12.13;36.39;94250.72;5069468;28;20867;-58
2022/04/03 07:09:31;;;;;;;1.50;0.80;;;;;;;12.75;35.88;94247.84;5068177;28;20449;-59
2022/04/03 07:11:58;;;;;;;3.00;1.00;;;;;;;12.98;35.20;94267.22;5060885;28;20969;-54
2022/04/03 07:14:25;;;;;;;2.20;0.70;;;;;;;12.51;36.45;94270.75;5052516;28;20450;-59
2022/04/03 07:16:52;;;;;;;3.53;1.03;;;;;;;12.97;35.43;94261.19;5050060;28;20439;-57
2022/04/03 07:19:20;;;;;;;3.60;0.90;;;;;;;13.13;35.66;94259.94;5052284;28;20475;-60
2022/04/03 07:21:47;;;;;;;4.70;1.73;;;;;;;12.62;36.29;94268.78;5050563;28;20442;-59
2022/04/03 07:24:14;;;;;;;3.80;0.70;;;;;;;12.71;36.92;94283.66;5052050;28;20442;-58
2022/04/03 07:26:41;;;;;;;0.87;0.70;;;;;;;12.73;36.78;94286.78;5060826;28;20505;-59
2022/04/03 07:29:08;;;;;;;2.00;1.13;;;;;;;13.16;36.49;94282.25;5048154;28;20453;-60
2022/04/03 07:31:35;;;;;;;1.37;1.07;;;;;;;12.74;36.56;94288.31;5049463;28;20520;-59
2022/04/03 07:34:02;;;;;;;2.17;1.20;;;;;;;12.47;36.64;94298.66;5050494;28;20462;-59
2022/04/03 07:36:30;;;;;;;3.03;1.57;;;;;;;13.34;36.30;94299.09;5050861;28;20485;-59
2022/04/03 07:38:57;;;;;;;5.63;2.57;;;;;;;13.45;35.97;94292.63;5049549;28;20463;-58
2022/04/03 07:41:24;;;;;;;6.07;1.70;;;;;;;14.16;35.29;94303.50;5058367;28;20438;-59
2022/04/03 07:43:51;;;;;;;3.50;0.90;;;;;;;13.75;34.84;94292.09;5048817;28;21065;-59
2022/04/03 07:46:19;;;;;;;4.40;1.13;;;;;;;12.97;35.88;94292.72;5054629;28;20524;-66
2022/04/03 07:48:46;;;;;;;3.50;0.90;;;;;;;13.89;34.78;94292.91;5050484;28;20508;-60
2022/04/03 07:51:13;;;;;;;1.70;0.90;;;;;;;13.13;35.64;94296.78;5056803;28;20442;-62
2022/04/03 07:53:40;;;;;;;1.03;0.67;;;;;;;13.23;34.78;94300.31;5055894;28;20842;-62
2022/04/03 07:56:07;;;;;;;1.63;0.67;;;;;;;12.69;35.39;94301.53;5051231;28;20440;-61
2022/04/03 07:58:37;;;;;;;1.63;0.83;;;;;;;13.73;35.59;94296.88;5051874;28;20453;-60
2022/04/03 08:01:04;;;;;;;0.70;0.60;;;;;;;14.03;34.91;94309.53;5052772;28;20512;-59
2022/04/03 08:03:30;;;;;;;0.60;0.50;;;;;;;13.84;33.93;94306.16;5056154;28;20454;-60
2022/04/03 08:05:57;;;;;;;2.03;0.63;;;;;;;12.84;34.56;94284.78;5052252;28;20507;-63
2022/04/03 08:08:24;;;;;;;1.43;0.80;;;;;;;13.52;34.83;94296.41;5059331;28;20874;-61
2022/04/03 08:10:51;;;;;;;3.10;0.80;;;;;;;13.39;34.77;94297.19;5050445;28;21359;-56
2022/04/03 08:13:20;;;;;;;1.20;0.70;;;;;;;13.42;35.03;94308.97;5049271;28;20508;-58
2022/04/03 08:15:48;;;;;;;12.33;6.53;;;;;;;13.42;35.10;94309.75;5064285;28;20438;-63
2022/04/03 08:18:16;;;;;;;44.40;33.10;;;;;;;13.57;34.56;94322.69;5068673;28;20438;-56
2022/04/03 08:20:44;;;;;;;18.80;13.43;;;;;;;13.68;34.63;94304.88;5067843;28;20446;-57
2022/04/03 08:23:11;;;;;;;2.20;0.50;;;;;;;13.81;34.00;94312.03;5068441;28;20446;-61
2022/04/03 08:25:39;;;;;;;2.00;0.83;;;;;;;14.49;32.91;94318.19;5067437;28;20537;-62
2022/04/03 08:28:07;;;;;;;2.30;0.50;;;;;;;13.12;33.70;94307.56;5068415;28;20435;-57
2022/04/03 08:30:36;;;;;;;3.20;0.50;;;;;;;13.49;33.63;94315.44;5067655;28;20474;-56
2022/04/03 08:33:05;;;;;;;3.97;0.70;;;;;;;13.81;33.21;94298.88;5069083;28;20450;-57
2022/04/03 08:35:38;;;;;;;3.00;0.60;;;;;;;14.32;32.46;94307.47;5068216;28;20434;-61
2022/04/03 08:38:05;;;;;;;0.90;0.50;;;;;;;13.94;33.00;94311.28;5068383;28;20498;-58
2022/04/03 08:40:33;;;;;;;1.13;0.70;;;;;;;14.22;32.58;94324.19;5067449;28;20506;-58
2022/04/03 08:43:02;;;;;;;0.73;0.60;;;;;;;13.68;32.57;94318.81;5068220;28;20453;-59
2022/04/03 08:45:29;;;;;;;1.03;0.50;;;;;;;13.09;33.02;94348.38;5066728;28;20991;-55
2022/04/03 08:48:01;;;;;;;1.97;0.67;;;;;;;14.23;32.06;94336.28;5068567;28;20494;-61
2022/04/03 08:50:35;;;;;;;0.83;0.40;;;;;;;14.15;31.87;94333.56;5067837;28;20453;-59
2022/04/03 08:53:04;;;;;;;0.83;0.50;;;;;;;14.21;32.28;94332.41;5068365;28;20452;-59
2022/04/03 08:55:32;;;;;;;3.03;1.40;;;;;;;13.44;33.26;94333.16;5067976;28;20814;-60
2022/04/03 08:57:59;;;;;;;3.67;1.40;;;;;;;13.64;33.64;94332.84;5068386;28;20438;-62
2022/04/03 09:00:29;;;;;;;1.27;0.50;;;;;;;14.12;33.20;94342.03;5067438;28;21339;-58
2022/04/03 09:02:57;;;;;;;0.90;0.70;;;;;;;14.20;33.01;94325.56;5076621;28;20951;-63
2022/04/03 09:05:34;;;;;;;23.70;20.60;;;;;;;14.73;33.09;94334.59;5070003;28;20450;-57
2022/04/03 09:08:01;;;;;;;6.53;5.23;;;;;;;15.32;31.35;94330.19;5071812;28;20470;-61
2022/04/03 09:10:30;;;;;;;1.40;0.70;;;;;;;14.07;32.41;94331.56;5070844;28;20441;-59
2022/04/03 09:12:57;;;;;;;1.77;0.77;;;;;;;13.82;32.50;94324.91;5071158;28;20976;-61
2022/04/03 09:15:25;;;;;;;2.40;0.60;;;;;;;14.04;32.58;94342.69;5070163;28;21002;-58
2022/04/03 09:17:54;;;;;;;0.70;0.50;;;;;;;14.93;31.53;94328.91;5071423;28;20427;-59
2022/04/03 09:20:25;;;;;;;3.87;1.40;;;;;;;15.34;31.37;94328.03;5054241;28;20483;-62
2022/04/03 09:22:55;;;;;;;0.40;0.40;;;;;;;15.31;30.12;94334.69;5068042;28;20449;-62
2022/04/03 09:25:25;;;;;;;1.17;0.70;;;;;;;14.92;30.79;94343.19;5066508;28;21123;-62
2022/04/03 09:27:57;;;;;;;1.93;0.50;;;;;;;14.66;30.60;94344.75;5070122;28;20481;-63
2022/04/03 09:30:31;;;;;;;17.30;12.47;;;;;;;15.64;31.92;94343.19;5070079;28;20444;-59
2022/04/03 09:32:59;;;;;;;3.67;2.47;;;;;;;15.85;32.12;94349.59;5071267;28;20488;-63
2022/04/03 09:35:29;;;;;;;14.40;2.30;;;;;;;15.05;33.21;94363.47;5070908;28;20453;-60
2022/04/03 09:38:14;;;;;;;2.43;1.50;;;;;;;15.08;34.91;94378.72;5069508;28;20466;-60
2022/04/03 09:40:47;;;;;;;4.03;2.67;;;;;;;15.06;36.44;94380.88;5068968;28;20519;-59
2022/04/03 09:43:38;;;;;;;3.43;1.50;;;;;;;14.45;37.06;94385.72;5057296;28;20834;-61
2022/04/03 09:46:10;;;;;;;2.13;1.43;;;;;;;14.63;37.14;94377.00;5053327;28;20434;-62
2022/04/03 09:48:42;;;;;;;3.40;1.60;;;;;;;15.22;38.37;94389.25;5051835;28;20442;-63
2022/04/03 09:51:22;;;;;;;3.07;1.70;;;;;;;15.41;38.70;94381.22;5062145;28;20445;-62
2022/04/03 09:53:53;;;;;;;3.07;1.80;;;;;;;16.14;37.89;94373.72;5055196;28;20872;-60
2022/04/03 09:56:33;;;;;;;3.43;1.43;;;;;;;15.81;37.57;94375.03;5064264;28;20512;-63
2022/04/03 09:59:03;;;;;;;5.97;1.50;;;;;;;16.40;36.05;94371.22;5061140;28;20497;-59
2022/04/03 10:01:34;;;;;;;3.13;1.57;;;;;;;16.17;36.60;94351.94;5055439;28;20442;-59
2022/04/03 10:04:13;;;;;;;5.63;1.60;;;;;;;16.30;34.16;94374.88;5057984;28;20474;-60
2022/04/03 10:06:43;;;;;;;3.83;1.53;;;;;;;15.95;35.46;94375.75;5063788;28;20481;-64
2022/04/03 10:09:15;;;;;;;2.00;1.53;;;;;;;16.18;35.65;94370.13;5058424;28;20454;-62
2022/04/03 10:11:43;;;;;;;40.73;36.03;;;;;;;16.51;36.18;94377.81;5053033;28;20478;-63
2022/04/03 10:14:11;;;;;;;7.83;5.97;;;;;;;16.57;35.07;94366.78;5069205;28;20469;-57
2022/04/03 10:16:40;;;;;;;24.33;19.83;;;;;;;16.23;34.29;94382.47;5061295;28;20442;-60
2022/04/03 10:19:08;;;;;;;3.43;1.87;;;;;;;16.10;33.29;94378.03;5058163;28;20450;-62
2022/04/03 10:21:43;;;;;;;1.97;1.50;;;;;;;16.81;33.47;94363.78;5050273;28;20471;-61
2022/04/03 10:24:29;;;;;;;2.00;1.53;;;;;;;17.15;31.27;94372.59;5049979;28;20454;-63
2022/04/03 10:27:02;;;;;;;3.73;1.80;;;;;;;16.75;32.14;94368.44;5050689;28;20474;-64
2022/04/03 10:29:36;;;;;;;2.60;1.77;;;;;;;16.84;32.21;94377.16;5049639;28;20449;-58
2022/04/03 10:32:04;;;;;;;2.60;1.53;;;;;;;16.35;31.23;94377.38;5048830;28;20442;-63
2022/04/03 10:34:43;;;;;;;4.27;1.40;;;;;;;16.45;32.00;94382.44;5049891;28;20451;-64
2022/04/03 10:37:24;;;;;;;2.23;1.60;;;;;;;16.19;31.80;94381.50;5049841;28;20469;-61
2022/04/03 10:39:54;;;;;;;2.70;1.80;;;;;;;16.33;32.15;94379.56;5048737;28;20916;-61
2022/04/03 10:42:27;;;;;;;2.63;1.57;;;;;;;16.24;33.12;94381.38;5049534;28;20446;-58
2022/04/03 10:45:12;;;;;;;3.80;1.97;;;;;;;16.74;32.47;94372.16;5049183;28;20446;-59
2022/04/03 10:47:40;;;;;;;3.93;2.27;;;;;;;17.17;31.55;94375.72;5046997;28;20585;-61
2022/04/03 10:50:20;;;;;;;2.90;2.13;;;;;;;17.36;31.18;94374.66;5046404;28;20447;-61
2022/04/03 10:52:55;;;;;;;2.40;1.67;;;;;;;17.11;29.99;94355.78;5047171;28;20538;-63
2022/04/03 10:55:21;;;;;;;3.37;1.40;;;;;;;17.34;30.17;94368.88;5047179;28;21225;-58
2022/04/03 10:57:51;;;;;;;2.20;2.00;;;;;;;16.99;29.88;94378.63;5047110;28;20435;-60
2022/04/03 11:00:18;;;;;;;7.77;1.80;;;;;;;16.85;30.78;94384.03;5048104;28;20439;-57
2022/04/03 11:02:49;;;;;;;4.03;1.67;;;;;;;16.36;30.79;94391.41;5049220;28;20446;-63
2022/04/03 11:05:22;;;;;;;3.73;1.80;;;;;;;15.99;31.38;94408.41;5049294;28;20470;-56
2022/04/03 11:08:01;;;;;;;2.37;1.80;;;;;;;15.89;33.38;94403.38;5049569;28;20493;-60
2022/04/03 11:10:50;;;;;;;2.47;2.00;;;;;;;16.36;34.04;94402.75;5048584;28;20442;-60
2022/04/03 11:13:18;;;;;;;3.13;2.33;;;;;;;15.71;34.91;94414.91;5049948;28;20443;-62
2022/04/03 11:16:11;;;;;;;2.63;2.00;;;;;;;15.99;33.10;94413.69;5049632;28;20450;-62
2022/04/03 11:18:41;;;;;;;3.13;2.20;;;;;;;16.26;33.48;94408.28;5049192;28;20930;-60
2022/04/03 11:21:22;;;;;;;2.87;2.13;;;;;;;15.77;33.49;94416.31;5048617;28;20439;-61
2022/04/03 11:24:03;;;;;;;2.83;1.90;;;;;;;15.93;32.50;94388.50;5049386;28;20437;-59
2022/04/03 11:26:30;;;;;;;3.57;1.80;;;;;;;16.09;32.82;94387.06;5047117;28;20455;-62
2022/04/03 11:29:04;;;;;;;2.53;1.90;;;;;;;16.10;33.03;94388.59;5049472;28;20690;-56
2022/04/03 11:31:32;;;;;;;3.50;1.90;;;;;;;15.84;32.70;94398.19;5049261;28;20439;-59
2022/04/03 11:34:00;;;;;;;4.50;2.20;;;;;;;16.14;32.97;94400.13;5049118;28;20427;-59
2022/04/03 11:36:30;;;;;;;2.97;2.27;;;;;;;15.53;33.52;94410.56;5048628;28;20423;-60
2022/04/03 11:39:00;;;;;;;4.00;2.00;;;;;;;15.53;33.09;94415.84;5048796;28;20479;-60